createdAt,value
2016-09-18T00:00:10.129Z,90.86
2016-09-18T00:01:34.444Z,90.56
2016-09-18T00:01:58.940Z,90.57
2016-09-18T00:02:20.683Z,90.50
2016-09-18T00:02:42.603Z,90.57
2016-09-18T00:03:36.930Z,91.17
2016-09-18T00:03:58.861Z,90.93
2016-09-18T00:04:25.814Z,90.59
2016-09-18T00:04:48.741Z,90.41
2016-09-18T00:05:10.501Z,90.76
2016-09-18T00:05:41.778Z,90.61
2016-09-18T00:06:05.535Z,90.43
2016-09-18T00:06:32.175Z,90.47
2016-09-18T00:06:53.929Z,90.46
2016-09-18T00:07:15.752Z,90.61
2016-09-18T00:07:43.736Z,90.60
2016-09-18T00:08:05.519Z,90.68
2016-09-18T00:08:27.311Z,90.53
2016-09-18T00:08:49.263Z,90.74
2016-09-18T00:09:11.167Z,90.84
2016-09-18T00:09:32.946Z,90.94
2016-09-18T00:09:58.834Z,91.21
2016-09-18T00:10:26.360Z,91.11
2016-09-18T00:10:48.255Z,90.96
2016-09-18T00:11:12.882Z,90.67
2016-09-18T00:11:34.677Z,90.60
2016-09-18T00:11:56.646Z,90.65
2016-09-18T00:12:18.415Z,90.70
2016-09-18T00:12:45.973Z,91.02
2016-09-18T00:13:12.674Z,90.96
2016-09-18T00:14:10.617Z,90.32
2016-09-18T00:14:33.634Z,90.01
2016-09-18T00:14:55.541Z,89.83
2016-09-18T00:15:17.407Z,89.73
2016-09-18T00:15:40.351Z,89.43
2016-09-18T00:16:02.349Z,89.56
2016-09-18T00:16:24.095Z,89.67
2016-09-18T00:16:45.836Z,89.83
2016-09-18T00:17:07.576Z,89.92
2016-09-18T00:17:29.362Z,89.94
2016-09-18T00:17:52.114Z,89.89
2016-09-18T00:18:18.738Z,90.12
2016-09-18T00:18:40.527Z,89.90
2016-09-18T00:19:03.503Z,89.93
2016-09-18T00:19:26.261Z,89.78
2016-09-18T00:19:48.031Z,89.75
2016-09-18T00:20:09.781Z,89.94
2016-09-18T00:20:32.533Z,90.21
2016-09-18T00:20:54.271Z,90.38
2016-09-18T00:21:16.019Z,90.33
2016-09-18T00:21:38.005Z,90.31
2016-09-18T00:21:59.829Z,90.54
2016-09-18T00:22:21.582Z,90.81
2016-09-18T00:23:14.649Z,91.14
2016-09-18T00:24:04.194Z,90.96
2016-09-18T00:24:30.754Z,90.61
2016-09-18T00:24:52.521Z,90.65
2016-09-18T00:25:15.638Z,90.74
2016-09-18T00:25:37.417Z,90.54
2016-09-18T00:25:59.189Z,90.32
2016-09-18T00:26:20.955Z,90.11
2016-09-18T00:26:42.712Z,90.22
2016-09-18T00:27:04.463Z,89.93
2016-09-18T00:27:52.749Z,89.90
2016-09-18T00:28:16.508Z,89.99
2016-09-18T00:28:39.259Z,90.06
2016-09-18T00:29:01.205Z,90.47
2016-09-18T00:29:25.241Z,90.19
2016-09-18T00:29:50.572Z,89.87
2016-09-18T00:30:13.516Z,89.85
2016-09-18T00:30:35.721Z,89.69
2016-09-18T00:31:33.500Z,89.55
2016-09-18T00:31:55.378Z,89.54
2016-09-18T00:32:44.626Z,89.67
2016-09-18T00:33:06.395Z,89.77
2016-09-18T00:33:28.366Z,89.97
2016-09-18T00:33:50.114Z,90.22
2016-09-18T00:34:12.875Z,90.18
2016-09-18T00:34:34.649Z,90.08
2016-09-18T00:35:03.166Z,89.79
2016-09-18T00:35:25.990Z,89.76
2016-09-18T00:35:52.511Z,89.51
2016-09-18T00:36:55.091Z,89.65
2016-09-18T00:37:16.886Z,89.74
2016-09-18T00:37:40.690Z,89.71
2016-09-18T00:39:08.547Z,89.73
2016-09-18T00:39:30.335Z,89.83
2016-09-18T00:39:52.098Z,89.79
2016-09-18T00:40:13.852Z,89.99
2016-09-18T00:40:35.618Z,90.23
2016-09-18T00:40:57.660Z,90.00
2016-09-18T00:41:19.573Z,90.47
2016-09-18T00:42:54.168Z,90.04
2016-09-18T00:43:46.274Z,89.93
2016-09-18T00:44:11.055Z,90.06
2016-09-18T00:44:37.583Z,89.77
2016-09-18T00:45:02.322Z,90.02
2016-09-18T00:45:26.105Z,90.28
2016-09-18T00:46:56.082Z,90.54
2016-09-18T00:47:17.935Z,90.37
2016-09-18T00:47:40.716Z,90.33
2016-09-18T00:48:02.483Z,90.30
2016-09-18T00:48:31.935Z,90.15
2016-09-18T00:48:53.919Z,90.06
2016-09-18T00:49:16.844Z,89.75
2016-09-18T00:50:14.655Z,89.06
2016-09-18T00:50:41.698Z,89.31
2016-09-18T00:51:35.759Z,90.05
2016-09-18T00:51:57.516Z,89.98
2016-09-18T00:52:20.306Z,90.21
2016-09-18T00:52:42.044Z,90.03
2016-09-18T00:53:12.287Z,89.91
2016-09-18T00:53:43.587Z,89.88
2016-09-18T00:54:32.229Z,89.94
2016-09-18T00:54:55.516Z,89.86
2016-09-18T00:55:18.303Z,89.51
2016-09-18T00:56:11.342Z,89.48
2016-09-18T00:57:53.715Z,90.36
2016-09-18T00:58:27.602Z,90.10
2016-09-18T00:58:54.431Z,89.81
2016-09-18T00:59:22.960Z,89.70
2016-09-18T00:59:47.739Z,89.53
2016-09-18T01:00:19.052Z,89.35
2016-09-18T01:01:14.665Z,89.48
2016-09-18T01:01:48.668Z,89.49
2016-09-18T01:02:11.423Z,89.32
2016-09-18T01:03:04.559Z,89.80
2016-09-18T01:04:02.773Z,89.88
2016-09-18T01:05:38.637Z,90.71
2016-09-18T01:06:01.423Z,90.69
2016-09-18T01:06:28.940Z,90.97
2016-09-18T01:06:52.057Z,90.87
2016-09-18T01:08:38.566Z,91.32
2016-09-18T01:09:38.255Z,90.90
2016-09-18T01:10:01.011Z,90.69
2016-09-18T01:11:34.495Z,90.33
2016-09-18T01:11:57.251Z,90.03
2016-09-18T01:12:35.872Z,90.04
2016-09-18T01:13:32.130Z,90.00
2016-09-18T01:14:08.166Z,90.55
2016-09-18T01:14:39.100Z,90.76
2016-09-18T01:15:05.638Z,90.95
2016-09-18T01:15:37.059Z,90.62
2016-09-18T01:16:18.764Z,90.61
2016-09-18T01:16:43.747Z,90.69
2016-09-18T01:17:13.914Z,90.94
2016-09-18T01:17:37.779Z,90.73
2016-09-18T01:18:31.804Z,90.13
2016-09-18T01:19:24.887Z,90.17
2016-09-18T01:19:52.412Z,89.92
2016-09-18T01:20:18.940Z,89.76
2016-09-18T01:20:52.264Z,89.59
2016-09-18T01:21:19.811Z,89.68
2016-09-18T01:21:48.361Z,89.74
2016-09-18T01:22:15.887Z,89.47
2016-09-18T01:22:42.402Z,89.61
2016-09-18T01:23:43.296Z,89.50
2016-09-18T01:24:05.157Z,89.57
2016-09-18T01:24:26.956Z,89.78
2016-09-18T01:25:56.688Z,90.12
2016-09-18T01:26:23.192Z,90.19
2016-09-18T01:26:46.175Z,90.34
2016-09-18T01:27:08.956Z,90.38
2016-09-18T01:28:02.978Z,90.78
2016-09-18T01:28:24.744Z,90.73
2016-09-18T01:28:51.343Z,90.63
2016-09-18T01:29:17.894Z,90.47
2016-09-18T01:29:39.644Z,90.61
2016-09-18T01:30:33.734Z,90.72
2016-09-18T01:30:56.492Z,90.55
2016-09-18T01:31:30.771Z,90.61
2016-09-18T01:32:20.056Z,90.29
2016-09-18T01:32:41.816Z,90.23
2016-09-18T01:33:03.586Z,90.25
2016-09-18T01:34:11.714Z,90.74
2016-09-18T01:34:37.234Z,90.95
2016-09-18T01:35:09.549Z,90.77
2016-09-18T01:35:50.505Z,90.92
2016-09-18T01:36:13.263Z,90.89
2016-09-18T01:36:39.795Z,90.63
2016-09-18T01:37:03.573Z,90.47
2016-09-18T01:37:32.089Z,90.43
2016-09-18T01:37:54.835Z,90.49
2016-09-18T01:38:16.617Z,90.56
2016-09-18T01:38:43.132Z,90.64
2016-09-18T01:39:09.875Z,90.58
2016-09-18T01:39:34.479Z,90.41
2016-09-18T01:40:00.995Z,90.52
2016-09-18T01:40:27.525Z,90.75
2016-09-18T01:40:49.308Z,90.55
2016-09-18T01:41:11.083Z,90.45
2016-09-18T01:41:33.864Z,90.25
2016-09-18T01:42:05.129Z,90.36
2016-09-18T01:42:27.874Z,90.40
2016-09-18T01:42:59.151Z,90.21
2016-09-18T01:43:20.924Z,90.19
2016-09-18T01:43:48.435Z,90.04
2016-09-18T01:44:19.928Z,89.89
2016-09-18T01:44:42.671Z,90.12
2016-09-18T01:45:10.335Z,90.33
2016-09-18T01:45:37.135Z,90.64
2016-09-18T01:46:06.885Z,90.53
2016-09-18T01:47:40.732Z,90.08
2016-09-18T01:48:02.492Z,90.41
2016-09-18T01:49:54.374Z,89.88
2016-09-18T01:50:50.268Z,90.22
2016-09-18T01:51:13.025Z,90.18
2016-09-18T01:51:40.543Z,90.13
2016-09-18T01:52:08.050Z,90.32
2016-09-18T01:52:29.826Z,90.71
2016-09-18T01:52:51.609Z,91.09
2016-09-18T01:53:13.381Z,91.08
2016-09-18T01:53:44.665Z,91.10
2016-09-18T01:54:38.700Z,90.63
2016-09-18T01:55:31.726Z,90.64
2016-09-18T01:55:53.486Z,90.58
2016-09-18T01:56:16.255Z,91.31
2016-09-18T01:58:47.769Z,90.57
2016-09-18T01:59:09.519Z,90.45
2016-09-18T01:59:41.663Z,90.89
2016-09-18T02:00:03.493Z,91.06
2016-09-18T02:00:30.104Z,91.10
2016-09-18T02:01:02.399Z,91.42
2016-09-18T02:04:02.709Z,90.30
2016-09-18T02:04:29.218Z,90.09
2016-09-18T02:04:55.762Z,89.98
2016-09-18T02:05:17.506Z,89.87
2016-09-18T02:05:44.031Z,89.79
2016-09-18T02:06:10.559Z,89.95
2016-09-18T02:06:32.300Z,90.25
2016-09-18T02:07:23.534Z,90.28
2016-09-18T02:07:45.310Z,90.28
2016-09-18T02:08:07.138Z,90.26
2016-09-18T02:08:30.914Z,90.03
2016-09-18T02:09:50.466Z,89.98
2016-09-18T02:10:12.200Z,90.05
2016-09-18T02:10:34.972Z,90.36
2016-09-18T02:10:57.749Z,90.68
2016-09-18T02:11:20.505Z,90.87
2016-09-18T02:11:48.000Z,90.94
2016-09-18T02:12:19.282Z,90.98
2016-09-18T02:12:41.030Z,90.68
2016-09-18T02:13:02.815Z,90.56
2016-09-18T02:13:29.337Z,90.95
2016-09-18T02:14:23.190Z,90.69
2016-09-18T02:14:47.679Z,90.67
2016-09-18T02:15:09.477Z,90.53
2016-09-18T02:15:31.246Z,90.43
2016-09-18T02:16:03.609Z,90.67
2016-09-18T02:16:30.389Z,90.54
2016-09-18T02:16:53.038Z,90.56
2016-09-18T02:17:14.795Z,90.63
2016-09-18T02:17:36.543Z,90.95
2016-09-18T02:17:58.306Z,90.98
2016-09-18T02:18:47.029Z,91.06
2016-09-18T02:19:08.914Z,91.33
2016-09-18T02:19:30.680Z,91.33
2016-09-18T02:20:22.952Z,91.27
2016-09-18T02:20:45.689Z,91.29
2016-09-18T02:21:08.437Z,90.87
2016-09-18T02:21:30.322Z,90.62
2016-09-18T02:21:53.346Z,90.50
2016-09-18T02:22:24.811Z,90.66
2016-09-18T02:22:56.066Z,90.56
2016-09-18T02:23:17.996Z,90.88
2016-09-18T02:23:39.772Z,91.31
2016-09-18T02:24:07.288Z,91.33
2016-09-18T02:24:33.788Z,91.13
2016-09-18T02:24:56.549Z,90.65
2016-09-18T02:25:19.362Z,90.57
2016-09-18T02:25:43.260Z,90.75
2016-09-18T02:26:35.243Z,91.19
2016-09-18T02:26:56.982Z,91.10
2016-09-18T02:27:28.264Z,90.69
2016-09-18T02:28:53.592Z,91.07
2016-09-18T02:29:15.378Z,91.06
2016-09-18T02:29:42.012Z,90.97
2016-09-18T02:30:09.531Z,90.87
2016-09-18T02:30:36.041Z,90.63
2016-09-18T02:30:58.815Z,90.39
2016-09-18T02:31:21.576Z,90.27
2016-09-18T02:32:11.116Z,90.26
2016-09-18T02:32:32.857Z,90.45
2016-09-18T02:32:57.483Z,90.58
2016-09-18T02:33:22.166Z,90.79
2016-09-18T02:33:43.973Z,91.09
2016-09-18T02:34:05.742Z,90.90
2016-09-18T02:34:27.477Z,91.00
2016-09-18T02:34:49.264Z,91.28
2016-09-18T02:35:16.767Z,91.16
2016-09-18T02:35:38.524Z,90.99
2016-09-18T02:36:00.290Z,90.72
2016-09-18T02:36:22.063Z,90.53
2016-09-18T02:36:48.575Z,90.89
2016-09-18T02:37:46.421Z,90.58
2016-09-18T02:38:10.299Z,90.44
2016-09-18T02:38:32.210Z,90.27
2016-09-18T02:39:34.857Z,90.45
2016-09-18T02:40:27.930Z,91.33
2016-09-18T02:40:49.670Z,91.40
2016-09-18T02:41:11.436Z,91.44
2016-09-18T02:41:59.711Z,91.12
2016-09-18T02:42:23.561Z,90.97
2016-09-18T02:42:54.828Z,91.46
2016-09-18T02:43:17.637Z,91.37
2016-09-18T02:43:40.550Z,91.49
2016-09-18T02:44:02.502Z,91.50
2016-09-18T02:44:29.132Z,91.39
2016-09-18T02:44:50.872Z,91.43
2016-09-18T02:45:12.616Z,91.47
2016-09-18T02:45:34.366Z,91.53
2016-09-18T02:46:00.860Z,90.97
2016-09-18T02:46:23.635Z,90.58
2016-09-18T02:46:45.398Z,90.27
2016-09-18T02:47:07.142Z,90.21
2016-09-18T02:47:28.882Z,90.21
2016-09-18T02:47:50.767Z,90.30
2016-09-18T02:48:12.562Z,90.19
2016-09-18T02:48:34.377Z,90.55
2016-09-18T02:48:56.102Z,91.04
2016-09-18T02:49:17.881Z,91.16
2016-09-18T02:49:39.628Z,91.37
2016-09-18T02:50:01.487Z,91.54
2016-09-18T02:50:30.693Z,91.22
2016-09-18T02:50:52.440Z,91.29
2016-09-18T02:51:21.740Z,91.20
2016-09-18T02:51:43.503Z,91.15
2016-09-18T02:52:43.779Z,91.44
2016-09-18T02:53:05.538Z,91.11
2016-09-18T02:53:27.302Z,90.64
2016-09-18T02:53:49.225Z,90.60
2016-09-18T02:54:11.138Z,90.96
2016-09-18T02:55:02.274Z,90.80
2016-09-18T02:55:24.012Z,90.65
2016-09-18T02:55:45.785Z,90.60
2016-09-18T02:56:17.058Z,90.59
2016-09-18T02:56:43.571Z,90.55
2016-09-18T02:57:14.834Z,90.70
2016-09-18T02:57:37.711Z,90.61
2016-09-18T02:58:04.339Z,90.70
2016-09-18T02:58:27.321Z,90.78
2016-09-18T02:58:49.455Z,91.17
2016-09-18T02:59:18.866Z,91.28
2016-09-18T02:59:45.366Z,91.23
2016-09-18T03:00:38.412Z,91.26
2016-09-18T03:01:01.295Z,91.37
2016-09-18T03:01:54.319Z,91.21
2016-09-18T03:02:20.850Z,90.98
2016-09-18T03:03:26.088Z,91.32
2016-09-18T03:04:16.207Z,91.29
2016-09-18T03:04:40.547Z,91.17
2016-09-18T03:05:08.050Z,91.36
2016-09-18T03:05:30.799Z,91.36
2016-09-18T03:05:54.780Z,91.25
2016-09-18T03:06:16.533Z,91.13
2016-09-18T03:06:39.276Z,91.55
2016-09-18T03:07:27.619Z,91.53
2016-09-18T03:07:49.346Z,91.48
2016-09-18T03:08:11.105Z,91.47
2016-09-18T03:08:32.851Z,91.32
2016-09-18T03:08:54.617Z,91.01
2016-09-18T03:09:16.360Z,90.72
2016-09-18T03:09:38.112Z,90.66
2016-09-18T03:09:59.862Z,90.65
2016-09-18T03:10:22.780Z,90.70
2016-09-18T03:11:22.489Z,90.76
2016-09-18T03:11:44.358Z,90.96
2016-09-18T03:12:06.521Z,91.43
2016-09-18T03:12:28.355Z,91.31
2016-09-18T03:13:26.124Z,91.33
2016-09-18T03:13:47.868Z,91.57
2016-09-18T03:14:12.611Z,91.59
2016-09-18T03:14:34.380Z,91.52
2016-09-18T03:14:56.150Z,91.18
2016-09-18T03:15:17.904Z,91.42
2016-09-18T03:15:44.418Z,91.35
2016-09-18T03:16:33.702Z,91.00
2016-09-18T03:17:01.222Z,91.15
2016-09-18T03:17:27.779Z,91.43
2016-09-18T03:17:49.519Z,91.49
2016-09-18T03:18:42.844Z,91.18
2016-09-18T03:19:05.059Z,91.12
2016-09-18T03:19:26.851Z,91.08
2016-09-18T03:20:26.726Z,91.17
2016-09-18T03:20:48.512Z,90.91
2016-09-18T03:21:12.342Z,90.89
2016-09-18T03:21:34.111Z,90.79
2016-09-18T03:21:58.156Z,90.79
2016-09-18T03:22:19.999Z,90.63
2016-09-18T03:22:43.029Z,90.69
2016-09-18T03:23:04.905Z,90.99
2016-09-18T03:23:26.659Z,91.02
2016-09-18T03:23:48.425Z,91.26
2016-09-18T03:24:10.175Z,91.27
2016-09-18T03:24:32.933Z,91.24
2016-09-18T03:24:55.683Z,91.12
2016-09-18T03:25:22.191Z,90.95
2016-09-18T03:25:43.942Z,91.11
2016-09-18T03:26:05.683Z,91.58
2016-09-18T03:26:54.940Z,91.75
2016-09-18T03:27:17.721Z,91.60
2016-09-18T03:27:39.478Z,91.69
2016-09-18T03:28:05.993Z,91.65
2016-09-18T03:28:27.744Z,91.61
2016-09-18T03:29:17.046Z,91.65
2016-09-18T03:29:43.564Z,91.34
2016-09-18T03:30:19.584Z,91.07
2016-09-18T03:34:13.993Z,90.99
2016-09-18T03:35:12.231Z,91.03
2016-09-18T03:35:49.126Z,91.31
2016-09-18T03:36:42.309Z,91.10
2016-09-18T03:38:35.301Z,91.09
2016-09-18T03:39:02.098Z,90.91
2016-09-18T03:39:28.594Z,90.81
2016-09-18T03:40:29.324Z,91.36
2016-09-18T03:40:51.136Z,91.56
2016-09-18T03:41:44.223Z,91.28
2016-09-18T03:42:09.724Z,91.30
2016-09-18T03:42:36.262Z,91.41
2016-09-18T03:43:10.448Z,91.59
2016-09-18T03:43:37.976Z,91.58
2016-09-18T03:48:28.101Z,92.28
2016-09-18T03:48:54.963Z,92.01
2016-09-18T03:49:26.258Z,91.80
2016-09-18T03:50:33.433Z,91.92
2016-09-18T03:51:01.536Z,91.96
2016-09-18T03:51:25.337Z,91.78
2016-09-18T03:51:55.654Z,91.46
2016-09-18T03:52:18.428Z,91.27
2016-09-18T03:52:47.916Z,91.19
2016-09-18T03:53:14.441Z,91.30
2016-09-18T03:53:36.195Z,91.16
2016-09-18T03:54:02.694Z,90.98
2016-09-18T03:54:24.447Z,90.91
2016-09-18T03:54:46.214Z,91.00
2016-09-18T03:55:12.716Z,91.00
2016-09-18T03:55:34.492Z,90.94
2016-09-18T03:55:56.307Z,91.07
2016-09-18T03:56:18.096Z,91.23
2016-09-18T03:57:12.131Z,91.71
2016-09-18T03:57:38.642Z,92.07
2016-09-18T03:58:00.402Z,92.35
2016-09-18T03:58:30.899Z,92.21
2016-09-18T03:59:00.060Z,91.64
2016-09-18T03:59:27.667Z,91.34
2016-09-18T03:59:50.428Z,91.22
2016-09-18T04:00:13.205Z,91.28
2016-09-18T04:01:47.878Z,91.22
2016-09-18T04:02:14.383Z,91.09
2016-09-18T04:02:40.905Z,90.74
2016-09-18T04:03:03.880Z,90.70
2016-09-18T04:03:54.163Z,91.22
2016-09-18T04:04:16.966Z,91.17
2016-09-18T04:04:43.596Z,91.36
2016-09-18T04:05:05.478Z,91.29
2016-09-18T04:05:29.820Z,91.34
2016-09-18T04:05:51.583Z,91.58
2016-09-18T04:06:39.884Z,91.70
2016-09-18T04:07:01.652Z,91.47
2016-09-18T04:07:23.414Z,91.18
2016-09-18T04:07:47.875Z,91.07
2016-09-18T04:08:09.619Z,90.96
2016-09-18T04:08:36.137Z,90.86
2016-09-18T04:09:03.660Z,90.88
2016-09-18T04:09:25.558Z,90.89
2016-09-18T04:09:47.298Z,91.09
2016-09-18T04:10:10.182Z,91.18
2016-09-18T04:10:32.121Z,91.04
2016-09-18T04:10:53.965Z,90.72
2016-09-18T04:11:15.727Z,90.58
2016-09-18T04:11:37.580Z,90.77
2016-09-18T04:12:04.089Z,91.12
2016-09-18T04:12:35.366Z,91.18
2016-09-18T04:13:24.659Z,90.95
2016-09-18T04:13:47.397Z,91.19
2016-09-18T04:14:10.156Z,91.90
2016-09-18T04:14:31.923Z,92.19
2016-09-18T04:15:07.878Z,92.29
2016-09-18T04:15:29.609Z,92.27
2016-09-18T04:15:52.354Z,92.11
2016-09-18T04:16:52.717Z,91.88
2016-09-18T04:17:17.379Z,91.77
2016-09-18T04:18:42.633Z,91.09
2016-09-18T04:19:09.285Z,91.17
2016-09-18T04:19:32.249Z,90.95
2016-09-18T04:19:56.009Z,90.79
2016-09-18T04:20:18.784Z,90.74
2016-09-18T04:20:45.325Z,90.80
2016-09-18T04:21:08.080Z,90.75
2016-09-18T04:21:35.597Z,90.76
2016-09-18T04:22:02.117Z,90.70
2016-09-18T04:22:23.888Z,90.86
2016-09-18T04:22:47.718Z,90.86
2016-09-18T04:23:54.911Z,91.67
2016-09-18T04:24:21.426Z,91.61
2016-09-18T04:25:17.444Z,91.76
2016-09-18T04:26:10.572Z,91.98
2016-09-18T04:26:38.099Z,91.85
2016-09-18T04:27:00.057Z,91.58
2016-09-18T04:27:59.722Z,91.10
2016-09-18T04:29:12.643Z,91.26
2016-09-18T04:29:40.825Z,91.29
2016-09-18T04:30:02.623Z,91.50
2016-09-18T04:30:25.670Z,91.52
2016-09-18T04:30:50.058Z,91.25
2016-09-18T04:31:43.273Z,91.60
2016-09-18T04:33:12.985Z,91.37
2016-09-18T04:33:39.497Z,91.44
2016-09-18T04:34:08.034Z,91.45
2016-09-18T04:34:43.248Z,91.98
2016-09-18T04:35:37.367Z,91.55
2016-09-18T04:35:59.136Z,91.50
2016-09-18T04:36:31.426Z,91.82
2016-09-18T04:36:58.022Z,91.68
2016-09-18T04:37:19.801Z,91.53
2016-09-18T04:37:43.564Z,91.43
2016-09-18T04:38:05.369Z,91.49
2016-09-18T04:38:27.222Z,91.39
2016-09-18T04:39:22.275Z,91.41
2016-09-18T04:39:54.633Z,91.30
2016-09-18T04:40:27.561Z,91.46
2016-09-18T04:40:51.779Z,91.30
2016-09-18T04:41:13.522Z,91.43
2016-09-18T04:41:35.280Z,91.69
2016-09-18T04:42:01.795Z,91.57
2016-09-18T04:42:28.295Z,91.25
2016-09-18T04:42:52.960Z,91.24
2016-09-18T04:43:14.707Z,91.08
2016-09-18T04:43:36.483Z,90.98
2016-09-18T04:44:00.240Z,91.19
2016-09-18T04:44:26.749Z,91.32
2016-09-18T04:45:26.556Z,91.39
2016-09-18T04:45:52.959Z,91.50
2016-09-18T04:46:15.760Z,91.79
2016-09-18T04:46:37.539Z,91.64
2016-09-18T04:46:59.306Z,91.70
2016-09-18T04:47:55.133Z,92.08
2016-09-18T04:48:16.899Z,92.24
2016-09-18T04:48:38.633Z,92.52
2016-09-18T04:49:12.730Z,92.61
2016-09-18T04:50:28.025Z,92.18
2016-09-18T04:50:49.796Z,92.04
2016-09-18T04:51:12.714Z,92.14
2016-09-18T04:52:15.926Z,91.64
2016-09-18T04:52:37.673Z,91.48
2016-09-18T04:53:02.045Z,91.66
2016-09-18T04:53:34.182Z,91.70
2016-09-18T04:54:00.694Z,91.65
2016-09-18T04:54:27.213Z,91.73
2016-09-18T04:54:50.995Z,91.51
2016-09-18T04:55:18.489Z,91.53
2016-09-18T04:55:41.251Z,91.61
2016-09-18T04:56:02.996Z,91.46
2016-09-18T04:56:32.410Z,91.45
2016-09-18T04:56:55.160Z,91.41
2016-09-18T04:58:24.304Z,91.36
2016-09-18T04:59:24.098Z,91.42
2016-09-18T05:01:24.409Z,92.33
2016-09-18T05:02:22.717Z,92.29
2016-09-18T05:02:50.026Z,92.31
2016-09-18T05:03:50.533Z,92.12
2016-09-18T05:04:58.464Z,91.83
2016-09-18T05:05:20.275Z,91.56
2016-09-18T05:05:49.398Z,91.53
2016-09-18T05:06:42.426Z,91.31
2016-09-18T05:07:06.163Z,91.20
2016-09-18T05:07:31.911Z,90.94
2016-09-18T05:07:53.650Z,90.90
2016-09-18T05:08:16.435Z,91.07
2016-09-18T05:08:47.705Z,90.92
2016-09-18T05:09:14.250Z,90.79
2016-09-18T05:09:40.752Z,90.98
2016-09-18T05:10:02.483Z,90.90
2016-09-18T05:10:24.211Z,90.70
2016-09-18T05:10:46.973Z,90.73
2016-09-18T05:11:08.712Z,90.71
2016-09-18T05:11:30.442Z,90.87
2016-09-18T05:11:52.183Z,90.84
2016-09-18T05:12:13.952Z,90.79
2016-09-18T05:12:35.812Z,91.14
2016-09-18T05:12:57.529Z,91.17
2016-09-18T05:13:19.267Z,91.07
2016-09-18T05:13:41.004Z,91.28
2016-09-18T05:14:02.743Z,91.49
2016-09-18T05:14:24.467Z,91.23
2016-09-18T05:14:46.263Z,91.30
2016-09-18T05:15:07.993Z,91.69
2016-09-18T05:15:29.731Z,91.63
2016-09-18T05:15:51.452Z,91.69
2016-09-18T05:16:13.191Z,91.53
2016-09-18T05:16:34.931Z,91.37
2016-09-18T05:16:56.809Z,91.37
2016-09-18T05:17:18.566Z,91.16
2016-09-18T05:17:40.298Z,91.14
2016-09-18T05:18:02.025Z,91.09
2016-09-18T05:18:23.750Z,91.28
2016-09-18T05:18:45.482Z,91.86
2016-09-18T05:19:07.241Z,92.19
2016-09-18T05:19:28.973Z,92.16
2016-09-18T05:19:50.711Z,91.92
2016-09-18T05:20:12.456Z,91.67
2016-09-18T05:20:34.199Z,91.66
2016-09-18T05:20:55.936Z,91.63
2016-09-18T05:21:17.699Z,91.48
2016-09-18T05:21:39.434Z,91.41
2016-09-18T05:22:01.165Z,91.37
2016-09-18T05:22:22.886Z,91.70
2016-09-18T05:22:44.614Z,91.63
2016-09-18T05:23:09.158Z,91.68
2016-09-18T05:23:30.893Z,91.53
2016-09-18T05:23:52.627Z,91.53
2016-09-18T05:24:14.362Z,91.65
2016-09-18T05:24:36.233Z,91.78
2016-09-18T05:24:57.967Z,92.24
2016-09-18T05:25:19.696Z,91.96
2016-09-18T05:25:41.439Z,91.73
2016-09-18T05:26:03.175Z,91.61
2016-09-18T05:26:24.896Z,91.57
2016-09-18T05:26:46.621Z,91.63
2016-09-18T05:27:08.345Z,91.47
2016-09-18T05:27:30.173Z,91.35
2016-09-18T05:27:51.901Z,91.28
2016-09-18T05:28:13.635Z,91.20
2016-09-18T05:28:35.367Z,91.22
2016-09-18T05:28:57.088Z,91.14
2016-09-18T05:29:18.834Z,90.98
2016-09-18T05:29:40.582Z,90.97
2016-09-18T05:30:02.320Z,91.08
2016-09-18T05:30:24.249Z,91.11
2016-09-18T05:30:45.980Z,91.24
2016-09-18T05:31:07.711Z,91.28
2016-09-18T05:31:29.459Z,91.26
2016-09-18T05:31:51.322Z,91.41
2016-09-18T05:32:13.057Z,91.23
2016-09-18T05:32:34.784Z,91.47
2016-09-18T05:32:56.509Z,91.26
2016-09-18T05:33:18.250Z,91.23
2016-09-18T05:33:39.987Z,91.30
2016-09-18T05:34:01.721Z,91.34
2016-09-18T05:34:23.466Z,91.45
2016-09-18T05:34:45.200Z,91.74
2016-09-18T05:35:06.941Z,91.62
2016-09-18T05:35:28.675Z,91.58
2016-09-18T05:35:50.409Z,91.42
2016-09-18T05:36:12.138Z,91.50
2016-09-18T05:36:33.869Z,91.42
2016-09-18T05:36:55.600Z,91.46
2016-09-18T05:37:17.341Z,91.30
2016-09-18T05:37:39.072Z,91.32
2016-09-18T05:38:00.822Z,91.13
2016-09-18T05:38:22.547Z,91.12
2016-09-18T05:38:44.288Z,91.14
2016-09-18T05:39:06.218Z,91.16
2016-09-18T05:39:27.923Z,91.28
2016-09-18T05:39:49.652Z,91.38
2016-09-18T05:40:11.386Z,91.38
2016-09-18T05:40:33.129Z,91.35
2016-09-18T05:40:54.864Z,91.22
2016-09-18T05:41:16.586Z,91.28
2016-09-18T05:41:38.320Z,91.70
2016-09-18T05:42:00.052Z,91.73
2016-09-18T05:42:21.785Z,91.70
2016-09-18T05:42:43.539Z,91.70
2016-09-18T05:43:10.038Z,91.65
2016-09-18T05:43:31.776Z,91.63
2016-09-18T05:43:53.510Z,91.50
2016-09-18T05:44:15.271Z,91.32
2016-09-18T05:44:37.004Z,91.55
2016-09-18T05:44:58.741Z,91.33
2016-09-18T05:45:20.467Z,91.20
2016-09-18T05:45:42.199Z,91.15
2016-09-18T05:46:03.927Z,91.18
2016-09-18T05:46:25.667Z,91.42
2016-09-18T05:46:47.405Z,91.51
2016-09-18T05:47:09.193Z,91.72
2016-09-18T05:47:31.014Z,91.58
2016-09-18T05:47:52.755Z,91.55
2016-09-18T05:48:14.497Z,91.79
2016-09-18T05:48:36.216Z,91.78
2016-09-18T05:48:57.952Z,91.55
2016-09-18T05:49:19.674Z,91.43
2016-09-18T05:49:41.411Z,91.27
2016-09-18T05:50:03.139Z,91.30
2016-09-18T05:50:24.864Z,91.35
2016-09-18T05:50:46.586Z,91.35
2016-09-18T05:51:08.320Z,91.28
2016-09-18T05:51:30.049Z,91.26
2016-09-18T05:51:51.789Z,91.51
2016-09-18T05:52:13.507Z,91.44
2016-09-18T05:52:35.316Z,91.26
2016-09-18T05:52:57.048Z,91.06
2016-09-18T05:53:18.780Z,91.08
2016-09-18T05:53:40.516Z,91.02
2016-09-18T05:54:02.236Z,91.11
2016-09-18T05:54:23.984Z,91.15
2016-09-18T05:54:45.776Z,91.28
2016-09-18T05:55:07.505Z,91.21
2016-09-18T05:55:29.274Z,91.13
2016-09-18T05:55:51.002Z,91.12
2016-09-18T05:56:12.736Z,91.03
2016-09-18T05:56:34.473Z,91.27
2016-09-18T05:56:56.291Z,91.12
2016-09-18T05:57:18.016Z,91.12
2016-09-18T05:57:39.764Z,91.14
2016-09-18T05:58:01.478Z,91.08
2016-09-18T05:58:23.207Z,91.07
2016-09-18T05:58:44.940Z,91.06
2016-09-18T05:59:06.761Z,91.00
2016-09-18T05:59:28.492Z,91.27
2016-09-18T05:59:50.221Z,91.15
2016-09-18T06:00:12.067Z,91.14
2016-09-18T06:00:33.795Z,91.17
2016-09-18T06:00:55.523Z,90.89
2016-09-18T06:01:17.257Z,91.43
2016-09-18T06:01:38.985Z,91.54
2016-09-18T06:02:00.714Z,91.44
2016-09-18T06:02:22.445Z,91.37
2016-09-18T06:02:44.179Z,91.45
2016-09-18T06:03:05.897Z,91.37
2016-09-18T06:03:27.648Z,91.23
2016-09-18T06:03:49.376Z,91.14
2016-09-18T06:04:11.111Z,91.26
2016-09-18T06:04:32.851Z,91.17
2016-09-18T06:04:54.583Z,91.12
2016-09-18T06:05:16.319Z,91.35
2016-09-18T06:05:38.042Z,91.39
2016-09-18T06:05:59.776Z,91.24
2016-09-18T06:06:21.497Z,91.19
2016-09-18T06:06:43.232Z,90.97
2016-09-18T06:07:05.158Z,90.86
2016-09-18T06:07:26.892Z,90.71
2016-09-18T06:07:48.646Z,91.14
2016-09-18T06:08:10.376Z,91.34
2016-09-18T06:08:32.106Z,91.48
2016-09-18T06:08:53.850Z,91.03
2016-09-18T06:09:15.574Z,91.28
2016-09-18T06:09:37.315Z,91.27
2016-09-18T06:09:59.036Z,91.29
2016-09-18T06:10:20.774Z,91.20
2016-09-18T06:10:42.519Z,91.57
2016-09-18T06:11:04.237Z,91.93
2016-09-18T06:11:25.977Z,91.67
2016-09-18T06:11:47.690Z,91.52
2016-09-18T06:12:09.423Z,91.40
2016-09-18T06:12:31.162Z,91.35
2016-09-18T06:12:52.897Z,91.31
2016-09-18T06:13:14.617Z,91.36
2016-09-18T06:13:36.351Z,91.28
2016-09-18T06:13:58.073Z,91.10
2016-09-18T06:14:19.939Z,91.04
2016-09-18T06:15:08.182Z,90.96
2016-09-18T06:15:29.949Z,91.22
2016-09-18T06:15:51.677Z,91.00
2016-09-18T06:16:13.405Z,90.94
2016-09-18T06:16:35.159Z,90.73
2016-09-18T06:16:56.896Z,91.10
2016-09-18T06:17:18.620Z,90.84
2016-09-18T06:17:40.358Z,91.04
2016-09-18T06:18:02.086Z,91.42
2016-09-18T06:18:24.832Z,91.60
2016-09-18T06:18:46.598Z,91.70
2016-09-18T06:19:08.323Z,91.47
2016-09-18T06:19:30.667Z,91.62
2016-09-18T06:19:53.051Z,91.55
2016-09-18T06:20:15.657Z,91.37
2016-09-18T06:20:37.425Z,91.32
2016-09-18T06:20:59.149Z,91.25
2016-09-18T06:21:21.034Z,91.00
2016-09-18T06:21:42.759Z,90.90
2016-09-18T06:22:05.507Z,91.25
2016-09-18T06:22:27.257Z,91.30
2016-09-18T06:22:49.032Z,91.25
2016-09-18T06:23:10.771Z,91.12